Time;durP1;ratioP1;P1;durP2;ratioP2;P2;SDS_P1;SDS_P2;PMS_P1;PMS_P2;Temp;Humidity;BMP_temperature;BMP_pressure;BME280_temperature;BME280_humidity;BME280_pressure;Samples;Min_cycle;Max_cycle;Signal;HPM_P1;HPM_P2
2022/10/24 00:00:15;;;;;;;8.50;3.37;;;;;;;13.21;100.00;100230.69;7392237;19;20431;-50
2022/10/24 00:02:45;;;;;;;7.93;3.00;;;;;;;13.18;100.00;100221.13;7392585;19;20461;-49
2022/10/24 00:05:17;;;;;;;7.57;3.50;;;;;;;13.19;100.00;100202.16;7395848;19;20467;-49
2022/10/24 00:07:47;;;;;;;13.07;4.17;;;;;;;13.22;100.00;100202.22;7389196;19;20437;-52
2022/10/24 00:10:16;;;;;;;11.00;3.07;;;;;;;13.14;100.00;100189.94;7391719;19;20425;-48
2022/10/24 00:12:46;;;;;;;5.87;3.20;;;;;;;13.18;100.00;100184.00;7388731;19;20426;-47
2022/10/24 00:15:16;;;;;;;8.97;3.80;;;;;;;13.20;100.00;100178.03;7392203;19;20460;-46
2022/10/24 00:17:45;;;;;;;7.80;3.10;;;;;;;13.17;100.00;100172.75;7388429;19;20436;-50
2022/10/24 00:20:17;;;;;;;7.47;3.40;;;;;;;13.18;100.00;100166.72;7391513;19;20400;-51
2022/10/24 00:22:47;;;;;;;9.37;3.53;;;;;;;13.23;100.00;100153.91;7388362;19;20445;-50
2022/10/24 00:25:16;;;;;;;7.17;3.47;;;;;;;13.16;100.00;100149.41;7392513;19;20759;-47
2022/10/24 00:27:46;;;;;;;8.60;3.43;;;;;;;13.16;100.00;100139.06;7389264;19;20413;-46
2022/10/24 00:30:15;;;;;;;7.00;3.13;;;;;;;13.18;100.00;100135.66;7391589;19;20398;-48
2022/10/24 00:32:45;;;;;;;7.57;3.73;;;;;;;13.19;100.00;100144.31;7387892;19;20435;-47
2022/10/24 00:35:17;;;;;;;6.67;3.20;;;;;;;13.10;100.00;100142.41;7391971;19;20403;-46
2022/10/24 00:37:47;;;;;;;7.13;3.47;;;;;;;13.12;100.00;100142.44;7388049;19;20937;-49
2022/10/24 00:40:19;;;;;;;7.13;3.30;;;;;;;13.04;100.00;100145.75;7390975;19;20404;-46
2022/10/24 00:42:49;;;;;;;7.93;3.77;;;;;;;13.02;100.00;100146.53;7387390;19;20419;-47
2022/10/24 00:45:52;;;;;;;4.80;3.83;;;;;;;13.06;100.00;100132.81;7391997;19;20612;-48
2022/10/24 00:48:25;;;;;;;9.93;3.90;;;;;;;13.09;100.00;100127.69;7388987;19;20414;-46
2022/10/24 00:50:59;;;;;;;11.10;3.30;;;;;;;12.99;100.00;100121.44;7391622;19;20397;-46
2022/10/24 00:53:29;;;;;;;5.83;3.47;;;;;;;12.95;100.00;100125.69;7388339;19;20419;-49
2022/10/24 00:56:00;;;;;;;6.30;3.77;;;;;;;12.94;100.00;100134.31;7389970;19;20428;-50
2022/10/24 00:58:31;;;;;;;5.10;3.60;;;;;;;12.86;100.00;100140.16;7388639;19;20405;-48
2022/10/24 01:01:01;;;;;;;7.23;3.90;;;;;;;12.83;100.00;100141.81;7389570;19;20762;-50
2022/10/24 01:03:31;;;;;;;7.23;3.57;;;;;;;12.86;100.00;100137.56;7391500;19;20799;-47
2022/10/24 01:06:24;;;;;;;4.30;3.20;;;;;;;12.86;100.00;100132.38;7385252;19;20433;-49
2022/10/24 01:08:58;;;;;;;13.87;3.33;;;;;;;12.87;100.00;100126.38;7391909;19;20456;-47
2022/10/24 01:11:40;;;;;;;6.30;3.80;;;;;;;12.97;100.00;100120.53;7389525;19;20768;-48
2022/10/24 01:14:17;;;;;;;6.17;3.93;;;;;;;12.97;100.00;100117.94;7392691;19;20472;-50
2022/10/24 01:16:50;;;;;;;6.87;3.03;;;;;;;12.92;100.00;100119.56;7392298;19;20399;-46
2022/10/24 01:19:39;;;;;;;7.60;3.47;;;;;;;12.85;100.00;100117.66;7390827;19;20398;-48
2022/10/24 01:22:16;;;;;;;4.70;3.30;;;;;;;12.79;100.00;100123.59;7389054;19;20410;-51
2022/10/24 01:25:02;;;;;;;7.97;3.33;;;;;;;12.73;100.00;100126.94;7389988;19;20384;-51
2022/10/24 01:27:39;;;;;;;5.87;3.37;;;;;;;12.69;100.00;100132.88;7387328;19;20444;-50
2022/10/24 01:30:12;;;;;;;9.70;3.90;;;;;;;12.67;100.00;100134.56;7397581;19;20382;-55
2022/10/24 01:32:50;;;;;;;5.53;3.20;;;;;;;12.62;100.00;100147.34;7395497;19;20428;-49
2022/10/24 01:35:35;;;;;;;5.03;3.33;;;;;;;12.58;100.00;100144.66;7398101;19;20388;-48
2022/10/24 01:38:10;;;;;;;6.63;3.70;;;;;;;12.56;100.00;100150.69;7394163;19;20441;-47
2022/10/24 01:40:45;;;;;;;13.00;3.30;;;;;;;12.55;100.00;100153.22;7400251;19;20418;-52
2022/10/24 01:43:16;;;;;;;5.70;3.30;;;;;;;12.50;100.00;100150.53;7395049;19;20407;-47
2022/10/24 01:45:52;;;;;;;6.50;3.70;;;;;;;12.53;100.00;100142.88;7397068;19;20396;-51
2022/10/24 01:48:23;;;;;;;5.33;3.33;;;;;;;12.48;100.00;100148.75;7394130;19;20414;-47
2022/10/24 01:50:54;;;;;;;8.73;3.20;;;;;;;12.51;100.00;100144.53;7396267;19;20415;-52
2022/10/24 01:53:27;;;;;;;5.00;3.07;;;;;;;12.50;100.00;100141.88;7395312;19;20415;-48
2022/10/24 01:55:57;;;;;;;8.20;3.60;;;;;;;12.46;100.00;100146.13;7395923;19;20395;-48
2022/10/24 01:58:27;;;;;;;6.60;3.13;;;;;;;12.43;100.00;100139.16;7394194;19;20437;-46
2022/10/24 02:01:01;;;;;;;5.67;3.40;;;;;;;12.42;100.00;100141.72;7400096;19;20773;-50
2022/10/24 02:03:34;;;;;;;11.87;4.37;;;;;;;12.45;100.00;100139.19;7396543;19;20422;-46
2022/10/24 02:06:06;;;;;;;5.60;3.13;;;;;;;12.43;100.00;100140.88;7400601;19;20425;-46
2022/10/24 02:08:40;;;;;;;6.10;3.23;;;;;;;12.48;100.00;100138.41;7393457;19;20952;-46
2022/10/24 02:11:10;;;;;;;7.20;3.60;;;;;;;12.38;100.00;100142.47;7395428;19;20416;-48
2022/10/24 02:13:46;;;;;;;4.03;2.80;;;;;;;12.42;100.00;100142.59;7393587;19;20413;-49
2022/10/24 02:16:20;;;;;;;7.23;3.77;;;;;;;12.42;100.00;100142.59;7396569;19;20391;-48
2022/10/24 02:18:51;;;;;;;5.97;3.57;;;;;;;12.41;100.00;100142.56;7394677;19;20411;-50
2022/10/24 02:21:26;;;;;;;5.40;3.70;;;;;;;12.38;100.00;100135.59;7395021;19;20446;-50
2022/10/24 02:24:01;;;;;;;6.07;3.57;;;;;;;12.47;100.00;100140.13;7393325;19;20414;-48
2022/10/24 02:26:34;;;;;;;8.63;3.43;;;;;;;12.40;100.00;100141.69;7395898;19;20384;-46
2022/10/24 02:29:08;;;;;;;4.17;2.93;;;;;;;12.33;100.00;100142.38;7391263;19;20426;-46
2022/10/24 02:31:43;;;;;;;5.70;3.10;;;;;;;12.34;100.00;100130.31;7394352;19;20432;-48
2022/10/24 02:34:14;;;;;;;5.70;3.50;;;;;;;12.42;100.00;100131.38;7395295;19;20415;-46
2022/10/24 02:36:45;;;;;;;4.37;3.50;;;;;;;12.49;100.00;100129.81;7395590;19;20384;-52
2022/10/24 02:39:15;;;;;;;4.37;3.37;;;;;;;12.47;100.00;100126.31;7392908;19;20903;-47
2022/10/24 02:41:46;;;;;;;8.17;3.90;;;;;;;12.43;100.00;100115.00;7395109;19;20423;-47
2022/10/24 02:44:17;;;;;;;6.40;3.00;;;;;;;12.41;100.00;100114.13;7395426;19;20815;-53
2022/10/24 02:46:49;;;;;;;7.93;3.60;;;;;;;12.34;100.00;100109.59;7392192;19;20406;-47
2022/10/24 02:49:19;;;;;;;6.00;3.93;;;;;;;12.42;100.00;100119.31;7395405;19;20774;-47
2022/10/24 02:51:49;;;;;;;7.03;3.67;;;;;;;12.34;100.00;100109.59;7390360;19;20792;-48
2022/10/24 02:54:19;;;;;;;5.37;3.90;;;;;;;12.31;100.00;100114.72;7394608;19;20388;-48
2022/10/24 02:56:52;;;;;;;8.80;3.47;;;;;;;12.34;100.00;100125.13;7391397;19;20391;-49
2022/10/24 02:59:22;;;;;;;6.43;3.60;;;;;;;12.24;100.00;100114.56;7394778;19;20412;-46
2022/10/24 03:01:54;;;;;;;11.93;3.87;;;;;;;12.19;100.00;100126.50;7390977;19;20448;-49
2022/10/24 03:04:23;;;;;;;4.70;3.40;;;;;;;12.20;100.00;100120.50;7398135;19;20465;-47
2022/10/24 03:06:53;;;;;;;6.87;3.90;;;;;;;12.21;100.00;100124.81;7391487;19;20427;-46
2022/10/24 03:09:22;;;;;;;10.70;3.77;;;;;;;12.22;100.00;100121.44;7394298;19;20395;-46
2022/10/24 03:11:52;;;;;;;9.67;4.23;;;;;;;12.17;100.00;100117.84;7390690;19;20419;-51
2022/10/24 03:14:22;;;;;;;8.70;4.77;;;;;;;12.18;100.00;100123.88;7393747;19;20408;-46
2022/10/24 03:16:54;;;;;;;6.50;3.67;;;;;;;12.23;100.00;100122.28;7392066;19;20885;-45
2022/10/24 03:19:23;;;;;;;7.87;3.30;;;;;;;12.21;100.00;100119.66;7393815;19;20812;-49
2022/10/24 03:21:53;;;;;;;6.53;3.50;;;;;;;12.18;100.00;100114.41;7391439;19;20427;-51
2022/10/24 03:24:22;;;;;;;6.90;4.40;;;;;;;12.21;100.00;100111.03;7392586;19;20389;-48
2022/10/24 03:27:12;;;;;;;6.10;4.50;;;;;;;12.13;100.00;100103.06;7389914;19;20426;-48
2022/10/24 03:29:41;;;;;;;6.37;3.50;;;;;;;12.13;100.00;100096.22;7393202;19;20384;-50
2022/10/24 03:32:14;;;;;;;5.23;3.40;;;;;;;12.07;100.00;100101.22;7389026;19;20775;-49
2022/10/24 03:34:43;;;;;;;9.50;3.73;;;;;;;12.00;100.00;100107.06;7392614;19;20392;-50
2022/10/24 03:37:13;;;;;;;9.40;3.40;;;;;;;11.94;100.00;100110.34;7390322;19;20403;-49
2022/10/24 03:39:42;;;;;;;9.50;3.83;;;;;;;11.98;100.00;100111.28;7392863;19;20920;-48
2022/10/24 03:42:12;;;;;;;5.80;3.37;;;;;;;11.96;100.00;100112.97;7391379;19;20442;-46
2022/10/24 03:44:41;;;;;;;6.60;3.40;;;;;;;11.92;100.00;100106.84;7395969;19;20942;-46
2022/10/24 03:47:14;;;;;;;9.13;3.70;;;;;;;11.95;100.00;100109.50;7387487;19;20396;-49
2022/10/24 03:49:43;;;;;;;12.00;4.63;;;;;;;11.92;100.00;100111.13;7392272;19;20399;-51
2022/10/24 03:52:13;;;;;;;13.73;4.17;;;;;;;11.88;100.00;100105.00;7387679;19;20411;-51
2022/10/24 03:54:43;;;;;;;7.90;4.00;;;;;;;11.87;100.00;100093.81;7391321;19;20386;-45
2022/10/24 03:57:12;;;;;;;8.23;3.73;;;;;;;11.85;100.00;100095.47;7388424;19;20388;-46
2022/10/24 03:59:42;;;;;;;11.47;4.47;;;;;;;11.80;100.00;100099.63;7392156;19;20463;-47
2022/10/24 04:02:14;;;;;;;7.20;3.80;;;;;;;11.74;100.00;100092.59;7387739;19;20395;-48
2022/10/24 04:04:43;;;;;;;6.53;3.57;;;;;;;11.75;100.00;100094.34;7393177;19;20440;-48
2022/10/24 04:07:13;;;;;;;12.30;3.53;;;;;;;11.68;100.00;100094.13;7391891;19;20406;-46
2022/10/24 04:09:42;;;;;;;9.47;4.03;;;;;;;11.68;100.00;100092.44;7389384;19;20391;-47
2022/10/24 04:12:12;;;;;;;8.73;4.20;;;;;;;11.70;100.00;100074.41;7387346;19;20406;-48
2022/10/24 04:14:41;;;;;;;11.10;3.90;;;;;;;11.70;100.00;100074.41;7391055;19;20439;-46
2022/10/24 04:17:13;;;;;;;5.50;3.60;;;;;;;11.67;100.00;100070.03;7389274;19;20441;-50
2022/10/24 04:19:43;;;;;;;11.00;4.33;;;;;;;11.67;100.00;100067.44;7391110;19;20427;-50
2022/10/24 04:22:13;;;;;;;7.80;4.07;;;;;;;11.65;100.00;100063.94;7386869;19;20438;-47
2022/10/24 04:24:42;;;;;;;16.70;4.17;;;;;;;11.67;100.00;100053.63;7390203;19;20387;-51
2022/10/24 04:27:12;;;;;;;8.20;3.50;;;;;;;11.68;100.00;100048.50;7387843;19;20409;-52
2022/10/24 04:29:41;;;;;;;10.70;4.80;;;;;;;11.68;100.00;100040.75;7389147;19;20387;-47
2022/10/24 04:32:13;;;;;;;8.60;4.27;;;;;;;11.74;100.00;100040.03;7387210;19;20449;-48
2022/10/24 04:34:43;;;;;;;6.37;3.90;;;;;;;11.72;100.00;100027.09;7390413;19;20742;-50
2022/10/24 04:37:12;;;;;;;8.40;4.63;;;;;;;11.77;100.00;100036.66;7390828;19;20410;-51
2022/10/24 04:39:42;;;;;;;6.33;4.03;;;;;;;11.58;100.00;100043.91;7390404;19;20413;-50
2022/10/24 04:42:11;;;;;;;9.37;4.40;;;;;;;11.54;100.00;100044.69;7386202;19;20412;-50
2022/10/24 04:44:41;;;;;;;11.37;4.00;;;;;;;11.50;100.00;100064.41;7390392;19;20387;-46
2022/10/24 04:47:10;;;;;;;5.77;4.00;;;;;;;11.56;100.00;100067.16;7389451;19;20441;-46
2022/10/24 04:49:42;;;;;;;7.20;4.03;;;;;;;11.48;100.00;100061.78;7389757;19;20420;-46
2022/10/24 04:52:12;;;;;;;30.07;20.20;;;;;;;11.51;100.00;100062.69;7386663;19;20424;-51
2022/10/24 04:54:42;;;;;;;12.10;4.70;;;;;;;11.48;100.00;100058.31;7393066;19;20406;-49
2022/10/24 04:57:11;;;;;;;9.93;4.27;;;;;;;11.45;100.00;100059.09;7387721;19;20428;-46
2022/10/24 04:59:41;;;;;;;37.43;19.03;;;;;;;11.63;100.00;100055.25;7390061;19;20389;-51
2022/10/24 05:02:10;;;;;;;9.40;3.90;;;;;;;11.51;100.00;100052.34;7385864;19;20417;-49
2022/10/24 05:04:42;;;;;;;8.57;4.77;;;;;;;11.50;100.00;100050.59;7388866;19;20425;-51
2022/10/24 05:07:12;;;;;;;8.00;4.83;;;;;;;11.46;100.00;100050.53;7386528;19;20978;-51
2022/10/24 05:09:42;;;;;;;11.83;5.03;;;;;;;11.58;100.00;100049.97;7387924;19;20391;-48
2022/10/24 05:12:12;;;;;;;8.67;4.27;;;;;;;11.63;100.00;100054.41;7385399;19;20396;-48
2022/10/24 05:14:41;;;;;;;7.90;4.77;;;;;;;11.56;100.00;100043.03;7389627;19;20945;-48
2022/10/24 05:17:11;;;;;;;8.50;3.97;;;;;;;11.52;100.00;100043.75;7387090;19;20425;-48
2022/10/24 05:19:43;;;;;;;8.73;5.43;;;;;;;11.55;100.00;100041.28;7388914;19;20414;-48
2022/10/24 05:22:12;;;;;;;12.20;4.90;;;;;;;11.53;100.00;100045.53;7385200;19;20403;-50
2022/10/24 05:24:42;;;;;;;8.50;4.67;;;;;;;11.50;100.00;100048.91;7389058;19;20385;-46
2022/10/24 05:27:11;;;;;;;20.07;6.00;;;;;;;11.53;100.00;100050.69;7386099;19;20975;-50
2022/10/24 05:29:41;;;;;;;7.10;4.17;;;;;;;11.50;100.00;100056.66;7387166;19;20394;-46
2022/10/24 05:32:10;;;;;;;13.40;6.93;;;;;;;11.57;100.00;100052.50;7385134;19;20464;-51
2022/10/24 05:34:43;;;;;;;10.67;4.20;;;;;;;11.57;100.00;100055.97;7389215;19;20954;-50
2022/10/24 05:37:12;;;;;;;12.20;5.10;;;;;;;11.54;100.00;100068.81;7386243;19;20406;-46
2022/10/24 05:39:41;;;;;;;8.33;4.40;;;;;;;11.55;100.00;100075.75;7388971;19;20415;-46
2022/10/24 05:42:12;;;;;;;9.13;4.37;;;;;;;11.54;100.00;100080.88;7385926;19;20409;-49
2022/10/24 05:44:41;;;;;;;14.83;5.03;;;;;;;11.51;100.00;100086.81;7388358;19;20392;-51
2022/10/24 05:47:11;;;;;;;15.23;5.47;;;;;;;11.48;100.00;100092.78;7389962;19;20439;-49
2022/10/24 05:49:43;;;;;;;12.23;5.03;;;;;;;11.58;100.00;100096.47;7387166;19;20403;-48
2022/10/24 05:52:12;;;;;;;11.80;4.40;;;;;;;11.55;100.00;100095.53;7384233;19;20426;-49
2022/10/24 05:54:42;;;;;;;11.33;4.50;;;;;;;11.53;100.00;100092.91;7388107;19;20755;-53
2022/10/24 05:57:31;;;;;;;11.70;4.67;;;;;;;11.52;100.00;100096.31;7386402;19;20412;-49
2022/10/24 06:00:02;;;;;;;9.40;4.30;;;;;;;11.54;100.00;100093.78;7388162;19;20387;-45
2022/10/24 06:02:31;;;;;;;6.77;4.13;;;;;;;11.54;100.00;100093.78;7386483;19;20445;-47
2022/10/24 06:05:04;;;;;;;11.53;4.43;;;;;;;11.56;100.00;100102.44;7385464;19;21050;-47
2022/10/24 06:07:34;;;;;;;15.20;4.37;;;;;;;11.61;100.00;100100.84;7384122;19;20421;-46
2022/10/24 06:10:03;;;;;;;10.83;4.47;;;;;;;11.68;100.00;100102.78;7386352;19;20394;-46
2022/10/24 06:12:34;;;;;;;10.23;4.10;;;;;;;11.67;100.00;100111.38;7384239;19;20406;-46
2022/10/24 06:15:05;;;;;;;12.50;4.40;;;;;;;11.68;100.00;100115.69;7388521;19;20390;-48
2022/10/24 06:17:35;;;;;;;9.87;4.50;;;;;;;11.69;100.00;100122.59;7392271;19;20779;-48
2022/10/24 06:20:08;;;;;;;13.17;4.43;;;;;;;11.72;100.00;100122.69;7396058;19;20394;-57
2022/10/24 06:22:38;;;;;;;8.00;4.47;;;;;;;11.74;100.00;100127.88;7391125;19;20402;-47
2022/10/24 06:25:08;;;;;;;10.80;4.17;;;;;;;11.79;100.00;100130.63;7394621;19;20406;-46
2022/10/24 06:27:37;;;;;;;13.73;4.33;;;;;;;11.84;100.00;100129.03;7392471;19;20781;-47
2022/10/24 06:30:09;;;;;;;6.30;3.60;;;;;;;11.97;100.00;100138.88;7392559;19;20395;-46
2022/10/24 06:32:39;;;;;;;9.10;4.40;;;;;;;12.01;100.00;100140.66;7390838;19;20428;-51
2022/10/24 06:35:15;;;;;;;8.60;3.30;;;;;;;12.04;100.00;100136.47;7394580;19;20892;-48
2022/10/24 06:37:45;;;;;;;9.00;3.60;;;;;;;12.15;100.00;100147.94;7389954;19;20424;-48
2022/10/24 06:40:17;;;;;;;14.77;4.53;;;;;;;12.19;100.00;100149.78;7396002;19;20417;-51
2022/10/24 06:42:47;;;;;;;12.70;4.57;;;;;;;12.27;100.00;100155.16;7389770;19;20417;-47
2022/10/24 06:45:17;;;;;;;15.33;5.87;;;;;;;12.31;100.00;100162.13;7394168;19;20970;-46
2022/10/24 06:47:46;;;;;;;20.17;11.37;;;;;;;12.32;100.00;100166.50;7388790;19;20756;-46
2022/10/24 06:50:24;;;;;;;9.57;3.50;;;;;;;12.28;100.00;100168.13;7392083;19;20401;-46
2022/10/24 06:52:54;;;;;;;6.60;3.47;;;;;;;12.32;100.00;100176.84;7390024;19;20429;-48
2022/10/24 06:55:24;;;;;;;8.60;4.60;;;;;;;12.36;100.00;100180.38;7392894;19;20391;-48
2022/10/24 06:57:54;;;;;;;13.40;6.40;;;;;;;12.37;100.00;100192.47;7390317;19;20410;-48
2022/10/24 07:00:24;;;;;;;21.77;11.20;;;;;;;12.43;100.00;100192.63;7392929;19;20390;-49
2022/10/24 07:02:53;;;;;;;17.07;5.37;;;;;;;12.46;100.00;100202.19;7389610;19;20485;-52
2022/10/24 07:05:25;;;;;;;13.33;3.70;;;;;;;12.45;100.00;100205.63;7393624;19;20434;-47
2022/10/24 07:07:55;;;;;;;8.93;4.13;;;;;;;12.42;100.00;100207.25;7390329;19;20430;-49
2022/10/24 07:10:25;;;;;;;8.03;3.53;;;;;;;12.45;100.00;100206.47;7391206;19;20426;-47
2022/10/24 07:12:54;;;;;;;11.47;4.50;;;;;;;12.47;100.00;100215.16;7390096;19;20410;-48
2022/10/24 07:15:24;;;;;;;11.57;3.80;;;;;;;12.47;100.00;100220.34;7393809;19;20406;-49
2022/10/24 07:17:53;;;;;;;10.00;4.23;;;;;;;12.50;100.00;100223.00;7391103;19;20415;-46
2022/10/24 07:20:25;;;;;;;14.20;3.53;;;;;;;12.48;100.00;100227.25;7392786;19;20426;-48
2022/10/24 07:22:55;;;;;;;10.17;3.07;;;;;;;12.54;100.00;100226.53;7389911;19;20398;-46
2022/10/24 07:25:24;;;;;;;9.60;3.60;;;;;;;12.56;100.00;100230.03;7393546;19;20394;-50
2022/10/24 07:27:54;;;;;;;8.57;3.70;;;;;;;12.63;100.00;100231.94;7390160;19;20426;-46
2022/10/24 07:30:24;;;;;;;7.50;3.60;;;;;;;12.67;100.00;100228.59;7391804;19;20395;-46
2022/10/24 07:32:55;;;;;;;19.50;3.60;;;;;;;12.70;100.00;100227.78;7390677;19;20454;-46
2022/10/24 07:35:27;;;;;;;5.47;3.30;;;;;;;12.76;100.00;100233.09;7393415;19;20396;-50
2022/10/24 07:37:56;;;;;;;15.97;6.30;;;;;;;12.78;100.00;100231.41;7388957;19;20426;-48
2022/10/24 07:40:26;;;;;;;10.93;3.63;;;;;;;12.85;100.00;100228.97;7392369;19;20404;-47
2022/10/24 07:42:55;;;;;;;9.23;3.60;;;;;;;12.88;100.00;100232.56;7387757;19;20806;-46
2022/10/24 07:45:26;;;;;;;14.73;4.33;;;;;;;12.93;100.00;100232.66;7392776;19;20407;-46
2022/10/24 07:47:57;;;;;;;5.47;3.00;;;;;;;12.96;100.00;100231.00;7389987;19;20430;-47
2022/10/24 07:50:29;;;;;;;9.77;3.60;;;;;;;13.06;100.00;100233.78;7391087;19;20394;-48
2022/10/24 07:52:58;;;;;;;10.23;3.57;;;;;;;13.09;100.00;100231.28;7388486;19;21101;-46
2022/10/24 07:55:28;;;;;;;10.30;3.53;;;;;;;13.13;100.00;100242.59;7396006;19;20951;-51
2022/10/24 07:57:57;;;;;;;12.50;4.00;;;;;;;13.16;100.00;100242.66;7388681;19;20426;-48
2022/10/24 08:00:27;;;;;;;8.10;3.30;;;;;;;13.20;100.00;100245.38;7391574;19;20383;-53
2022/10/24 08:02:57;;;;;;;9.80;3.90;;;;;;;13.28;100.00;100237.75;7378441;19;20443;-48
2022/10/24 08:05:29;;;;;;;9.27;3.23;;;;;;;13.29;100.00;100238.63;7392734;19;20368;-47
2022/10/24 08:07:59;;;;;;;7.37;3.40;;;;;;;13.33;100.00;100238.72;7388904;19;20419;-47
2022/10/24 08:10:49;;;;;;;16.07;3.60;;;;;;;13.42;100.00;100235.47;7390152;19;20411;-48
2022/10/24 08:13:18;;;;;;;9.57;3.33;;;;;;;13.46;100.00;100239.03;7386434;19;20425;-48
2022/10/24 08:15:48;;;;;;;9.57;3.70;;;;;;;13.53;100.00;100237.47;7389785;19;20414;-48
2022/10/24 08:18:17;;;;;;;7.87;3.13;;;;;;;13.63;100.00;100235.09;7388302;19;20427;-48
2022/10/24 08:20:58;;;;;;;7.13;3.17;;;;;;;13.70;100.00;100230.03;7390255;19;20846;-47
2022/10/24 08:23:28;;;;;;;10.80;4.43;;;;;;;13.82;100.00;100225.09;7388867;19;20981;-46
2022/10/24 08:25:57;;;;;;;6.83;3.30;;;;;;;13.89;100.00;100226.97;7390423;19;20383;-49
2022/10/24 08:28:27;;;;;;;8.63;3.00;;;;;;;13.97;100.00;100224.53;7388236;19;20429;-47
2022/10/24 08:30:57;;;;;;;15.17;4.10;;;;;;;14.03;100.00;100226.34;7388703;19;20387;-52
2022/10/24 08:33:27;;;;;;;8.97;3.17;;;;;;;14.00;100.00;100221.13;7387668;19;20406;-48
2022/10/24 08:36:01;;;;;;;10.70;2.87;;;;;;;14.02;100.00;100227.19;7390258;19;20406;-52
2022/10/24 08:38:31;;;;;;;11.30;3.20;;;;;;;14.01;100.00;100217.69;7389680;19;20840;-49
2022/10/24 08:41:01;;;;;;;10.87;4.30;;;;;;;13.99;100.00;100216.75;7389491;19;20399;-47
2022/10/24 08:43:31;;;;;;;11.03;3.37;;;;;;;14.05;100.00;100214.28;7388408;19;20755;-48
2022/10/24 08:46:07;;;;;;;10.50;3.17;;;;;;;14.13;100.00;100215.31;7389935;19;20394;-47
2022/10/24 08:48:43;;;;;;;10.47;3.30;;;;;;;14.17;100.00;100214.50;7387276;19;20963;-51
2022/10/24 08:51:23;;;;;;;10.60;3.17;;;;;;;14.23;100.00;100213.75;7388647;19;20417;-47
2022/10/24 08:53:55;;;;;;;10.10;3.30;;;;;;;14.26;100.00;100211.22;7381810;19;20418;-50
2022/10/24 08:56:26;;;;;;;8.20;3.00;;;;;;;14.32;100.00;100207.88;7393176;19;20407;-46
2022/10/24 08:58:56;;;;;;;15.43;3.37;;;;;;;14.41;100.00;100208.00;7386773;19;20411;-46
2022/10/24 09:01:31;;;;;;;8.83;2.87;;;;;;;14.50;100.00;100215.09;7389012;19;20427;-51
2022/10/24 09:04:05;;;;;;;8.80;2.60;;;;;;;14.66;100.00;100213.63;7390804;19;20462;-48
2022/10/24 09:06:38;;;;;;;8.67;3.37;;;;;;;14.84;100.00;100220.00;7390004;19;20740;-46
2022/10/24 09:09:14;;;;;;;7.50;2.10;;;;;;;14.97;100.00;100215.84;7386754;19;20442;-49
2022/10/24 09:11:47;;;;;;;7.63;2.83;;;;;;;15.01;100.00;100221.97;7387393;19;20439;-51
2022/10/24 09:14:18;;;;;;;11.57;2.50;;;;;;;14.94;100.00;100224.50;7389574;19;20523;-48
2022/10/24 09:16:51;;;;;;;6.40;2.67;;;;;;;14.97;100.00;100214.13;7387184;19;20411;-50
2022/10/24 09:19:23;;;;;;;7.17;2.10;;;;;;;15.11;100.00;100208.25;7388871;19;20381;-49
2022/10/24 09:21:57;;;;;;;6.10;2.47;;;;;;;15.24;100.00;100223.16;7385906;19;20455;-46
2022/10/24 09:24:34;;;;;;;8.97;3.60;;;;;;;15.31;100.00;100231.03;7388938;19;20391;-49
2022/10/24 09:27:05;;;;;;;22.53;8.30;;;;;;;15.36;100.00;100224.19;7392289;19;20452;-49
2022/10/24 09:29:35;;;;;;;9.97;3.73;;;;;;;15.44;100.00;100227.75;7389507;19;20398;-46
2022/10/24 09:32:05;;;;;;;51.03;16.33;;;;;;;15.49;100.00;100220.91;7383751;19;20444;-46
2022/10/24 09:34:35;;;;;;;12.30;3.20;;;;;;;15.57;100.00;100217.53;7390005;19;20394;-47
2022/10/24 09:37:07;;;;;;;7.93;2.30;;;;;;;15.65;100.00;100221.97;7389277;19;20568;-49
2022/10/24 09:39:36;;;;;;;10.23;4.07;;;;;;;15.72;100.00;100217.72;7389156;19;20386;-50
2022/10/24 09:42:06;;;;;;;21.30;7.73;;;;;;;15.78;100.00;100233.41;7386019;19;20426;-47
2022/10/24 09:44:36;;;;;;;11.57;4.70;;;;;;;15.87;100.00;100229.16;7389307;19;20381;-47
2022/10/24 09:47:08;;;;;;;10.63;2.80;;;;;;;15.97;100.00;100223.25;7387110;19;20429;-52
2022/10/24 09:49:41;;;;;;;8.87;3.07;;;;;;;16.11;100.00;100230.31;7389781;19;20470;-46
2022/10/24 09:52:20;;;;;;;10.17;2.87;;;;;;;16.00;100.00;100231.06;7390896;19;20449;-50
2022/10/24 09:55:07;;;;;;;7.83;2.73;;;;;;;15.92;100.00;100227.50;7396093;19;20410;-45
2022/10/24 09:57:41;;;;;;;8.50;4.00;;;;;;;15.97;100.00;100238.84;7394471;19;20414;-46
2022/10/24 10:00:24;;;;;;;11.43;3.57;;;;;;;16.10;100.00;100223.38;7395703;19;20389;-61
2022/10/24 10:03:05;;;;;;;8.57;2.90;;;;;;;16.04;100.00;100229.38;7395824;19;20825;-48
2022/10/24 10:05:46;;;;;;;6.50;2.50;;;;;;;16.11;100.00;100232.91;7400974;19;20922;-46
2022/10/24 10:08:22;;;;;;;14.87;2.97;;;;;;;16.25;100.00;100233.94;7392869;19;20418;-50
2022/10/24 10:11:00;;;;;;;9.77;2.80;;;;;;;16.37;100.00;100224.50;7395045;19;20383;-47
2022/10/24 10:13:30;;;;;;;9.10;3.57;;;;;;;16.45;100.00;100228.91;7394110;19;20429;-50
2022/10/24 10:16:02;;;;;;;11.60;2.40;;;;;;;16.50;100.00;100213.34;7395596;19;20932;-47
2022/10/24 10:18:35;;;;;;;6.03;2.53;;;;;;;16.58;100.00;100231.63;7394070;19;20418;-48
2022/10/24 10:21:12;;;;;;;10.00;2.73;;;;;;;16.68;100.00;100219.56;7394773;19;20916;-46
2022/10/24 10:23:45;;;;;;;14.40;2.43;;;;;;;16.70;100.00;100225.66;7392259;19;20799;-52
2022/10/24 10:26:22;;;;;;;10.23;4.10;;;;;;;16.79;100.00;100223.13;7396041;19;20387;-46
2022/10/24 10:29:01;;;;;;;11.13;2.27;;;;;;;16.82;100.00;100230.94;7390859;19;20433;-48
2022/10/24 10:31:36;;;;;;;8.40;2.03;;;;;;;16.79;100.00;100224.84;7393708;19;20432;-49
2022/10/24 10:34:24;;;;;;;8.70;2.83;;;;;;;16.92;100.00;100228.44;7393028;19;20994;-50
2022/10/24 10:37:05;;;;;;;7.30;2.60;;;;;;;17.01;100.00;100210.25;7391499;19;21312;-50
2022/10/24 10:39:52;;;;;;;6.13;1.70;;;;;;;17.01;100.00;100228.47;7393415;19;20412;-48
2022/10/24 10:42:31;;;;;;;7.67;3.50;;;;;;;16.99;100.00;100227.59;7391739;19;20788;-48
2022/10/24 10:45:08;;;;;;;10.20;2.20;;;;;;;17.04;100.00;100225.94;7396088;19;20432;-48
2022/10/24 10:47:47;;;;;;;5.33;1.70;;;;;;;16.99;100.00;100232.81;7393716;19;20465;-49
2022/10/24 10:50:26;;;;;;;8.67;1.50;;;;;;;16.86;100.00;100232.72;7395175;19;20419;-48
2022/10/24 10:52:59;;;;;;;9.67;3.17;;;;;;;16.97;100.00;100231.94;7391687;19;20416;-47
2022/10/24 10:55:37;;;;;;;11.53;2.40;;;;;;;16.99;100.00;100227.59;7395084;19;20422;-50
2022/10/24 10:58:18;;;;;;;11.03;2.23;;;;;;;16.92;100.00;100228.44;7393037;19;20408;-51
2022/10/24 11:00:54;;;;;;;7.87;2.43;;;;;;;16.77;100.00;100237.00;7393393;19;20406;-47
2022/10/24 11:03:32;;;;;;;10.33;2.60;;;;;;;16.68;100.00;100232.59;7392292;19;20907;-48
2022/10/24 11:06:12;;;;;;;9.17;2.50;;;;;;;16.67;100.00;100236.06;7395229;19;20415;-52
2022/10/24 11:09:11;;;;;;;7.00;2.00;;;;;;;16.64;100.00;100236.00;7390193;19;20465;-49
2022/10/24 11:11:46;;;;;;;7.40;2.33;;;;;;;16.63;100.00;100232.56;7393984;19;20786;-45
2022/10/24 11:14:28;;;;;;;6.40;1.70;;;;;;;16.62;100.00;100232.53;7397447;19;20466;-48
2022/10/24 11:17:00;;;;;;;6.47;1.67;;;;;;;16.60;100.00;100238.59;7392538;19;20376;-49
2022/10/24 11:19:34;;;;;;;9.47;3.50;;;;;;;16.61;100.00;100229.03;7395038;19;20399;-48
2022/10/24 11:22:06;;;;;;;8.10;1.93;;;;;;;16.58;100.00;100237.72;7390373;19;20459;-49
2022/10/24 11:24:45;;;;;;;6.73;2.87;;;;;;;16.63;100.00;100227.34;7394117;19;20387;-45
2022/10/24 11:27:23;;;;;;;9.27;2.43;;;;;;;16.66;100.00;100235.16;7393823;19;20439;-50
2022/10/24 11:29:55;;;;;;;12.73;2.60;;;;;;;16.69;100.00;100234.31;7394129;19;20426;-50
2022/10/24 11:32:29;;;;;;;20.20;7.27;;;;;;;16.77;100.00;100223.97;7387713;19;20441;-48
2022/10/24 11:35:02;;;;;;;9.97;2.90;;;;;;;16.93;100.00;100235.38;7394634;19;20418;-48
2022/10/24 11:37:34;;;;;;;12.23;4.70;;;;;;;17.08;100.00;100240.72;7390936;19;20419;-50